Time;durP1;ratioP1;P1;durP2;ratioP2;P2;SDS_P1;SDS_P2;PMS_P1;PMS_P2;Temp;Humidity;BMP_temperature;BMP_pressure;BME280_temperature;BME280_humidity;BME280_pressure;Samples;Min_cycle;Max_cycle;Signal;HPM_P1;HPM_P2
2022/08/28 00:00:48;;;;;;;8.02;3.15;;;;;;;14.87;100.00;101985.59;5042352;28;20033;-72
2022/08/28 00:03:14;;;;;;;12.20;3.65;;;;;;;14.83;100.00;101983.75;5036564;28;20123;-72
2022/08/28 00:05:40;;;;;;;6.65;3.30;;;;;;;14.84;100.00;101983.75;5036533;28;20128;-73
2022/08/28 00:08:07;;;;;;;16.42;3.10;;;;;;;14.89;100.00;101982.94;5050810;28;20512;-73
2022/08/28 00:10:32;;;;;;;14.05;3.53;;;;;;;14.89;100.00;101983.84;5050883;28;20025;-72
2022/08/28 00:12:58;;;;;;;10.18;2.75;;;;;;;14.93;100.00;101987.44;5036103;28;20025;-73
2022/08/28 00:15:28;;;;;;;8.98;3.05;;;;;;;14.91;100.00;101981.22;5038374;28;20427;-73
2022/08/28 00:17:54;;;;;;;8.18;3.15;;;;;;;14.90;100.00;101990.03;5050599;28;20107;-74
2022/08/28 00:20:20;;;;;;;15.73;3.75;;;;;;;14.84;100.00;101988.19;5050928;28;20113;-73
2022/08/28 00:22:47;;;;;;;7.75;3.28;;;;;;;14.83;100.00;101995.22;5050026;28;20021;-73
2022/08/28 00:25:14;;;;;;;9.38;3.33;;;;;;;14.81;100.00;101991.66;5053971;28;20032;-72
2022/08/28 00:27:52;;;;;;;17.05;3.88;;;;;;;14.80;100.00;101995.19;5044243;28;20040;-72
2022/08/28 00:30:27;;;;;;;7.10;2.90;;;;;;;14.78;100.00;101996.88;5041761;28;20472;-73
2022/08/28 00:32:54;;;;;;;9.15;2.75;;;;;;;14.77;100.00;101995.13;5050721;28;20025;-73
2022/08/28 00:35:22;;;;;;;8.82;3.28;;;;;;;14.75;100.00;101991.53;5050065;28;20022;-73
2022/08/28 00:37:49;;;;;;;11.25;3.30;;;;;;;14.71;100.00;102000.31;5043201;28;20407;-73
2022/08/28 00:40:17;;;;;;;9.65;3.45;;;;;;;14.68;100.00;102002.91;5050904;28;20017;-72
2022/08/28 00:42:44;;;;;;;18.27;4.28;;;;;;;14.65;100.00;102000.22;5042979;28;20033;-73
2022/08/28 00:45:09;;;;;;;11.00;3.28;;;;;;;14.61;100.00;102003.59;5040811;28;20056;-73
2022/08/28 00:47:35;;;;;;;6.65;3.13;;;;;;;14.55;100.00;102003.50;5043659;28;20061;-72
2022/08/28 00:50:02;;;;;;;5.82;3.03;;;;;;;14.50;100.00;101999.03;5043082;28;20017;-72
2022/08/28 00:52:28;;;;;;;12.68;3.35;;;;;;;14.48;100.00;102007.78;5036531;28;20614;-72
2022/08/28 00:54:58;;;;;;;8.40;3.05;;;;;;;14.44;100.00;102001.53;5049678;28;20021;-73
2022/08/28 00:57:30;;;;;;;14.27;3.75;;;;;;;14.46;100.00;102001.56;5053604;28;20086;-72
2022/08/28 00:59:55;;;;;;;10.65;2.85;;;;;;;14.41;100.00;101997.97;5047029;28;20416;-74
2022/08/28 01:02:21;;;;;;;6.68;3.00;;;;;;;14.39;100.00;101999.66;5044120;28;20029;-73
2022/08/28 01:04:47;;;;;;;10.60;3.10;;;;;;;14.36;100.00;101999.63;5038206;28;20056;-73
2022/08/28 01:07:14;;;;;;;9.07;3.75;;;;;;;14.32;100.00;102003.94;5041910;28;20721;-73
2022/08/28 01:09:44;;;;;;;10.60;3.63;;;;;;;14.30;100.00;102003.03;5044495;28;20079;-73
2022/08/28 01:12:14;;;;;;;7.30;3.47;;;;;;;14.31;100.00;101999.50;5040638;28;20033;-73
2022/08/28 01:14:44;;;;;;;7.70;4.00;;;;;;;14.31;100.00;101999.50;5042376;28;20107;-73
2022/08/28 01:17:12;;;;;;;9.48;3.25;;;;;;;14.30;100.00;102000.41;5049884;28;20029;-72
2022/08/28 01:19:54;;;;;;;7.32;2.75;;;;;;;14.27;100.00;102000.31;5043112;28;20021;-72
2022/08/28 01:22:28;;;;;;;12.52;3.17;;;;;;;14.22;100.00;101994.94;5040460;28;20061;-72
2022/08/28 01:24:56;;;;;;;11.75;3.13;;;;;;;14.20;100.00;101990.47;5041420;28;20033;-73
2022/08/28 01:27:22;;;;;;;8.68;3.13;;;;;;;14.17;100.00;101986.00;5036112;28;20036;-73
2022/08/28 01:29:48;;;;;;;5.03;2.88;;;;;;;14.13;100.00;101987.72;5044256;28;20388;-73
2022/08/28 01:32:25;;;;;;;9.85;3.28;;;;;;;14.12;100.00;101992.94;5042642;28;20164;-73
2022/08/28 01:34:50;;;;;;;8.88;2.90;;;;;;;14.13;100.00;101992.09;5044929;28;20037;-73
2022/08/28 01:37:15;;;;;;;8.23;3.25;;;;;;;14.13;100.00;101990.38;5041678;28;20029;-72
2022/08/28 01:39:40;;;;;;;7.53;2.80;;;;;;;14.12;100.00;101988.56;5037962;28;20041;-73
2022/08/28 01:42:06;;;;;;;10.10;2.97;;;;;;;14.13;100.00;101987.72;5050148;28;20392;-72
2022/08/28 01:44:31;;;;;;;8.85;3.03;;;;;;;14.14;100.00;101992.13;5047064;28;20464;-73
2022/08/28 01:46:57;;;;;;;10.70;3.38;;;;;;;14.13;100.00;101986.81;5046584;28;20029;-72
2022/08/28 01:49:24;;;;;;;10.07;2.90;;;;;;;14.10;100.00;101990.28;5050236;28;20025;-73
2022/08/28 01:51:49;;;;;;;9.30;2.83;;;;;;;14.09;100.00;101987.59;5037154;28;20021;-73
2022/08/28 01:54:15;;;;;;;7.13;2.63;;;;;;;14.03;100.00;101998.97;5043532;28;20028;-73
2022/08/28 01:56:43;;;;;;;8.15;2.75;;;;;;;14.03;100.00;101993.66;5051984;28;20025;-73
2022/08/28 01:59:11;;;;;;;8.88;3.20;;;;;;;14.02;100.00;102001.59;5050133;28;20127;-71
2022/08/28 02:01:37;;;;;;;12.35;2.80;;;;;;;14.00;100.00;101999.78;5046335;28;20036;-73
2022/08/28 02:04:03;;;;;;;9.88;3.28;;;;;;;13.97;100.00;102005.03;5047111;28;20489;-73
2022/08/28 02:06:29;;;;;;;11.00;2.90;;;;;;;13.96;100.00;101997.06;5045478;28;20039;-73
2022/08/28 02:08:54;;;;;;;6.28;2.88;;;;;;;13.93;100.00;102002.25;5044095;28;20045;-73
2022/08/28 02:11:22;;;;;;;10.35;3.47;;;;;;;13.91;100.00;102007.53;5034650;28;20420;-71
2022/08/28 02:13:48;;;;;;;11.57;3.30;;;;;;;13.89;100.00;102011.00;5034334;28;20025;-72
2022/08/28 02:16:14;;;;;;;7.78;3.10;;;;;;;13.85;100.00;102009.16;5034053;28;20397;-72
2022/08/28 02:18:39;;;;;;;6.25;2.75;;;;;;;13.85;100.00;102014.44;5033819;28;20036;-72
2022/08/28 02:21:05;;;;;;;11.30;3.03;;;;;;;13.83;100.00;102012.66;5033553;28;20040;-72
2022/08/28 02:23:31;;;;;;;11.98;3.30;;;;;;;13.81;100.00;102010.84;5033635;28;20021;-74
2022/08/28 02:25:56;;;;;;;5.85;3.00;;;;;;;13.79;100.00;102017.84;5058353;28;20361;-72
2022/08/28 02:28:21;;;;;;;14.65;3.00;;;;;;;13.77;100.00;102012.53;5044194;28;20060;-72
2022/08/28 02:30:47;;;;;;;6.47;2.95;;;;;;;13.73;100.00;102015.97;5048290;28;20017;-73
2022/08/28 02:33:12;;;;;;;4.90;2.85;;;;;;;13.71;100.00;102012.38;5049919;28;20025;-73
2022/08/28 02:35:39;;;;;;;6.53;2.72;;;;;;;13.69;100.00;102008.81;5033301;28;20029;-72
2022/08/28 02:38:04;;;;;;;14.52;3.53;;;;;;;13.68;100.00;102009.66;5045700;28;20021;-73
2022/08/28 02:40:30;;;;;;;7.25;3.03;;;;;;;13.65;100.00;102009.63;5033248;28;20052;-74
2022/08/28 02:42:55;;;;;;;5.60;3.22;;;;;;;13.63;100.00;102013.97;5034016;28;20021;-73
2022/08/28 02:45:21;;;;;;;12.93;3.63;;;;;;;13.62;100.00;102014.84;5033370;28;20102;-73
2022/08/28 02:47:49;;;;;;;10.38;4.03;;;;;;;13.58;100.00;102010.31;5033374;28;20029;-73
2022/08/28 02:50:18;;;;;;;10.10;3.33;;;;;;;13.54;100.00;102019.03;5042744;28;20057;-73
2022/08/28 02:52:45;;;;;;;6.97;3.15;;;;;;;13.52;100.00;102026.06;5044420;28;20027;-72
2022/08/28 02:55:13;;;;;;;7.40;3.22;;;;;;;13.49;100.00;102021.59;5038156;28;20112;-73
2022/08/28 02:57:39;;;;;;;9.93;3.30;;;;;;;13.48;100.00;102018.06;5033016;28;20576;-73
2022/08/28 03:00:08;;;;;;;5.82;2.88;;;;;;;13.49;100.00;102025.09;5036246;28;20489;-73
2022/08/28 03:02:35;;;;;;;16.80;5.38;;;;;;;13.50;100.00;102023.38;5042979;28;20030;-73
2022/08/28 03:05:00;;;;;;;7.18;3.70;;;;;;;13.51;100.00;102030.47;5039268;28;20100;-72
2022/08/28 03:07:27;;;;;;;8.00;2.90;;;;;;;13.56;100.00;102027.91;5035508;28;20108;-73
2022/08/28 03:09:53;;;;;;;13.90;3.17;;;;;;;13.55;100.00;102026.13;5033191;28;20052;-72
2022/08/28 03:12:22;;;;;;;9.63;3.08;;;;;;;13.58;100.00;102026.19;5033393;28;20485;-73
2022/08/28 03:14:48;;;;;;;8.30;3.55;;;;;;;13.60;100.00;102027.13;5045079;28;20070;-73
2022/08/28 03:17:13;;;;;;;7.95;3.85;;;;;;;13.62;100.00;102030.72;5050893;28;20437;-73
2022/08/28 03:19:39;;;;;;;7.18;2.78;;;;;;;13.64;100.00;102021.94;5043843;28;20037;-73
2022/08/28 03:22:04;;;;;;;8.18;2.80;;;;;;;13.65;100.00;102017.53;5032995;28;20021;-73
2022/08/28 03:24:29;;;;;;;8.02;2.80;;;;;;;13.64;100.00;102019.28;5037250;28;20064;-73
2022/08/28 03:26:55;;;;;;;10.73;3.15;;;;;;;13.63;100.00;102020.16;5040758;28;20025;-73
2022/08/28 03:29:20;;;;;;;9.35;2.60;;;;;;;13.72;100.00;102030.03;5036975;28;20083;-73
2022/08/28 03:31:46;;;;;;;11.68;3.22;;;;;;;13.73;100.00;102029.19;5035531;28;20037;-73
2022/08/28 03:34:12;;;;;;;7.65;2.72;;;;;;;13.74;100.00;102025.69;5042536;28;20427;-73
2022/08/28 03:36:37;;;;;;;8.25;2.83;;;;;;;13.75;100.00;102026.56;5044988;28;20043;-72
2022/08/28 03:39:05;;;;;;;6.10;2.75;;;;;;;13.75;100.00;102024.81;5037078;28;20029;-71
2022/08/28 03:41:31;;;;;;;9.55;3.05;;;;;;;13.76;100.00;102026.59;5036752;28;20083;-72
2022/08/28 03:43:58;;;;;;;10.43;3.10;;;;;;;13.77;100.00;102024.88;5037326;28;20503;-73
2022/08/28 03:46:25;;;;;;;7.00;2.60;;;;;;;13.77;100.00;102028.41;5042447;28;20473;-72
2022/08/28 03:48:52;;;;;;;10.98;2.60;;;;;;;13.79;100.00;102029.31;5055239;28;20102;-72
2022/08/28 03:51:24;;;;;;;11.57;3.40;;;;;;;13.80;100.00;102033.75;5054758;28;20055;-73
2022/08/28 03:53:51;;;;;;;6.80;2.97;;;;;;;13.82;100.00;102033.78;5041941;28;20028;-73
2022/08/28 03:56:21;;;;;;;8.95;3.42;;;;;;;13.81;100.00;102040.84;5052780;28;20029;-74
2022/08/28 03:58:51;;;;;;;10.52;2.90;;;;;;;13.81;100.00;102035.53;5041186;28;20060;-73
2022/08/28 04:01:18;;;;;;;10.48;3.20;;;;;;;13.81;100.00;102035.53;5054426;28;20060;-74
2022/08/28 04:03:44;;;;;;;5.95;2.78;;;;;;;13.80;100.00;102039.03;5049017;28;20095;-72
2022/08/28 04:06:09;;;;;;;4.70;2.55;;;;;;;13.83;100.00;102044.38;5049842;28;20033;-73
2022/08/28 04:08:36;;;;;;;5.07;2.70;;;;;;;13.85;100.00;102040.91;5041620;28;20088;-73
2022/08/28 04:11:01;;;;;;;7.15;2.67;;;;;;;13.88;100.00;102047.16;5036246;28;20025;-74
2022/08/28 04:13:28;;;;;;;4.82;2.75;;;;;;;13.88;100.00;102048.94;5036284;28;20095;-73
2022/08/28 04:16:09;;;;;;;9.27;3.58;;;;;;;13.90;100.00;102048.06;5036114;28;20037;-73
2022/08/28 04:18:39;;;;;;;4.40;2.25;;;;;;;13.91;100.00;102046.34;5048974;28;20104;-73
2022/08/28 04:21:08;;;;;;;10.93;3.10;;;;;;;13.91;100.00;102041.03;5040091;28;20116;-73
2022/08/28 04:23:35;;;;;;;4.65;2.45;;;;;;;13.98;100.00;102048.25;5045814;28;20055;-73
2022/08/28 04:26:06;;;;;;;6.45;2.42;;;;;;;13.99;100.00;102042.09;5050818;28;20091;-73
2022/08/28 04:28:32;;;;;;;8.95;2.90;;;;;;;14.02;100.00;102055.41;5036987;28;20041;-73
2022/08/28 04:30:58;;;;;;;12.20;3.17;;;;;;;14.07;100.00;102059.03;5040032;28;20443;-73
2022/08/28 04:33:25;;;;;;;11.68;2.88;;;;;;;14.09;100.00;102054.66;5044487;28;20026;-73
2022/08/28 04:35:51;;;;;;;6.65;2.97;;;;;;;14.10;100.00;102053.81;5045977;28;20033;-73
2022/08/28 04:38:16;;;;;;;11.35;2.90;;;;;;;14.14;100.00;102060.94;5042637;28;20041;-72
2022/08/28 04:40:42;;;;;;;9.73;2.75;;;;;;;14.18;100.00;102061.03;5038763;28;20027;-73
2022/08/28 04:43:07;;;;;;;5.82;2.33;;;;;;;14.21;100.00;102061.09;5036258;28;20108;-73
2022/08/28 04:45:40;;;;;;;9.40;2.88;;;;;;;14.23;100.00;102049.69;5035381;28;20043;-73
2022/08/28 04:48:06;;;;;;;7.70;2.38;;;;;;;14.29;100.00;102056.84;5035731;28;20056;-72
2022/08/28 04:50:32;;;;;;;9.32;2.70;;;;;;;14.32;100.00;102059.56;5040091;28;20021;-73
2022/08/28 04:52:58;;;;;;;8.13;3.15;;;;;;;14.32;100.00;102055.16;5036865;28;20071;-73
2022/08/28 04:55:23;;;;;;;7.47;2.63;;;;;;;14.37;100.00;102063.19;5049897;28;20410;-73
2022/08/28 04:57:48;;;;;;;14.93;3.10;;;;;;;14.40;100.00;102062.38;5035769;28;20036;-73
2022/08/28 05:00:14;;;;;;;9.35;3.15;;;;;;;14.44;100.00;102061.56;5034954;28;20449;-73
2022/08/28 05:02:40;;;;;;;9.13;2.72;;;;;;;14.47;100.00;102059.88;5035233;28;20105;-72
2022/08/28 05:05:06;;;;;;;7.88;2.22;;;;;;;14.49;100.00;102058.16;5037087;28;20104;-73
2022/08/28 05:07:32;;;;;;;7.22;2.33;;;;;;;14.53;100.00;102061.75;5048938;28;20029;-73
2022/08/28 05:09:57;;;;;;;14.35;2.92;;;;;;;14.57;100.00;102073.28;5049316;28;20057;-73
2022/08/28 05:12:23;;;;;;;10.05;2.75;;;;;;;14.60;100.00;102070.72;5035119;28;20033;-73
2022/08/28 05:14:49;;;;;;;11.82;2.63;;;;;;;14.63;100.00;102076.09;5048660;28;20032;-73
2022/08/28 05:17:15;;;;;;;7.95;3.10;;;;;;;14.65;100.00;102071.75;5052055;28;20152;-74
2022/08/28 05:19:40;;;;;;;9.57;2.38;;;;;;;14.65;100.00;102069.09;5036125;28;20036;-74
2022/08/28 05:22:08;;;;;;;7.90;2.67;;;;;;;14.68;100.00;102074.44;5035859;28;20029;-73
2022/08/28 05:24:34;;;;;;;8.95;2.17;;;;;;;14.69;100.00;102073.59;5035863;28;20033;-73
2022/08/28 05:26:59;;;;;;;15.93;3.47;;;;;;;14.71;100.00;102079.78;5046931;28;20040;-73
2022/08/28 05:29:25;;;;;;;8.15;2.58;;;;;;;14.74;100.00;102074.53;5041594;28;20040;-74
2022/08/28 05:31:50;;;;;;;6.78;2.35;;;;;;;14.77;100.00;102079.94;5037209;28;20362;-73
2022/08/28 05:34:16;;;;;;;9.05;2.60;;;;;;;14.81;100.00;102080.84;5042169;28;20051;-74
2022/08/28 05:36:41;;;;;;;9.30;2.58;;;;;;;14.83;100.00;102080.03;5038964;28;20025;-73
2022/08/28 05:39:09;;;;;;;8.40;2.35;;;;;;;14.88;100.00;102087.16;5044213;28;20468;-73
2022/08/28 05:41:37;;;;;;;9.45;2.33;;;;;;;14.90;100.00;102088.09;5047384;28;20033;-73
2022/08/28 05:44:05;;;;;;;7.45;2.10;;;;;;;14.89;100.00;102084.53;5050432;28;20044;-74
2022/08/28 05:46:32;;;;;;;6.45;2.35;;;;;;;14.92;100.00;102095.22;5036288;28;20029;-73
2022/08/28 05:48:59;;;;;;;7.63;2.22;;;;;;;14.94;100.00;102095.25;5039257;28;20365;-73
2022/08/28 05:51:25;;;;;;;9.45;2.08;;;;;;;14.95;100.00;102094.38;5036826;28;20026;-72
2022/08/28 05:53:52;;;;;;;11.30;2.72;;;;;;;14.96;100.00;102088.19;5035440;28;20025;-73
2022/08/28 05:56:24;;;;;;;13.68;2.58;;;;;;;14.96;100.00;102085.53;5035260;28;20037;-73
2022/08/28 05:58:49;;;;;;;5.28;2.00;;;;;;;14.93;100.00;102086.38;5041797;28;20052;-74
2022/08/28 06:01:26;;;;;;;6.45;1.60;;;;;;;14.92;100.00;102091.66;5044626;28;20060;-72
2022/08/28 06:03:55;;;;;;;10.85;2.90;;;;;;;14.91;100.00;102092.53;5038583;28;20078;-72
2022/08/28 06:06:23;;;;;;;6.35;2.42;;;;;;;14.90;100.00;102102.22;5034097;28;20026;-73
2022/08/28 06:08:50;;;;;;;9.85;2.30;;;;;;;14.89;100.00;102104.84;5034306;28;20430;-73
2022/08/28 06:11:18;;;;;;;10.65;1.85;;;;;;;14.89;100.00;102099.56;5037592;28;20025;-72
2022/08/28 06:13:44;;;;;;;5.63;1.88;;;;;;;14.90;100.00;102102.22;5035260;28;20035;-72
2022/08/28 06:16:10;;;;;;;10.73;2.60;;;;;;;14.92;100.00;102099.59;5050837;28;20388;-73
2022/08/28 06:18:35;;;;;;;7.90;2.50;;;;;;;14.91;100.00;102097.84;5045731;28;20020;-72
2022/08/28 06:21:04;;;;;;;7.18;3.10;;;;;;;14.91;100.00;102098.72;5042005;28;20424;-69
2022/08/28 06:23:30;;;;;;;6.40;2.13;;;;;;;14.92;100.00;102100.53;5051144;28;20475;-73
2022/08/28 06:25:55;;;;;;;5.90;1.80;;;;;;;14.94;100.00;102100.53;5039729;28;20053;-73
2022/08/28 06:28:23;;;;;;;6.25;2.00;;;;;;;14.98;100.00;102105.03;5040873;28;20055;-74
2022/08/28 06:30:50;;;;;;;13.30;2.30;;;;;;;15.00;100.00;102098.91;5051723;28;20032;-73
2022/08/28 06:33:16;;;;;;;7.88;1.83;;;;;;;15.07;100.00;102110.50;5053801;28;20051;-73
2022/08/28 06:35:50;;;;;;;14.88;1.95;;;;;;;15.12;100.00;102108.81;5045635;28;20456;-73
2022/08/28 06:38:17;;;;;;;6.38;2.05;;;;;;;15.17;100.00;102107.16;5037597;28;20038;-72
2022/08/28 06:40:48;;;;;;;8.38;1.92;;;;;;;15.24;100.00;102118.75;5042449;28;20021;-74
2022/08/28 06:43:14;;;;;;;10.63;1.85;;;;;;;15.31;100.00;102117.09;5044237;28;20021;-74
2022/08/28 06:45:42;;;;;;;8.68;2.00;;;;;;;15.38;100.00;102118.09;5051596;28;20043;-74
2022/08/28 06:48:09;;;;;;;9.27;1.85;;;;;;;15.41;100.00;102116.41;5034189;28;20045;-73
2022/08/28 06:50:42;;;;;;;8.15;2.17;;;;;;;15.42;100.00;102123.47;5044903;28;20557;-74
2022/08/28 06:53:09;;;;;;;3.03;1.55;;;;;;;15.41;100.00;102115.50;5046042;28;20071;-73
2022/08/28 06:55:35;;;;;;;6.72;1.50;;;;;;;15.46;100.00;102120.03;5037864;28;20029;-73
2022/08/28 06:58:01;;;;;;;10.10;2.08;;;;;;;15.50;100.00;102124.53;5044625;28;20021;-73
2022/08/28 07:00:26;;;;;;;7.35;1.80;;;;;;;15.54;100.00;102116.63;5042974;28;20033;-73
2022/08/28 07:02:52;;;;;;;16.13;2.00;;;;;;;15.57;100.00;102121.97;5048650;28;20051;-73
2022/08/28 07:05:17;;;;;;;4.13;1.38;;;;;;;15.58;100.00;102124.63;5040646;28;20052;-73
2022/08/28 07:07:42;;;;;;;7.05;1.83;;;;;;;15.62;100.00;102126.47;5048245;28;20044;-73
2022/08/28 07:10:08;;;;;;;6.28;1.67;;;;;;;15.67;100.00;102129.22;5045484;28;20806;-72
2022/08/28 07:12:34;;;;;;;11.05;2.22;;;;;;;15.75;100.00;102127.56;5046995;28;20029;-73
2022/08/28 07:15:00;;;;;;;10.80;2.00;;;;;;;15.85;100.00;102128.63;5045771;28;20017;-73
2022/08/28 07:17:25;;;;;;;4.55;1.77;;;;;;;15.99;100.00;102131.50;5045371;28;20044;-74
2022/08/28 07:19:51;;;;;;;8.95;2.03;;;;;;;16.10;100.00;102129.91;5040215;28;20065;-72
2022/08/28 07:22:16;;;;;;;10.55;1.70;;;;;;;16.28;100.00;102125.72;5062565;28;20033;-75
2022/08/28 07:24:41;;;;;;;5.93;1.85;;;;;;;16.37;100.00;102128.47;5059145;28;20037;-74
2022/08/28 07:27:07;;;;;;;5.63;2.13;;;;;;;16.49;100.00;102139.28;5048576;28;20033;-74
2022/08/28 07:29:34;;;;;;;10.85;1.92;;;;;;;16.61;100.00;102138.53;5037170;28;20025;-73
2022/08/28 07:31:59;;;;;;;8.70;1.77;;;;;;;16.67;100.00;102143.03;5038644;28;20456;-73
2022/08/28 07:34:25;;;;;;;7.22;2.50;;;;;;;16.69;100.00;102149.25;5039284;28;20030;-73
2022/08/28 07:36:53;;;;;;;4.28;1.52;;;;;;;16.78;100.00;102157.34;5057953;28;20037;-73
2022/08/28 07:39:18;;;;;;;6.57;1.90;;;;;;;16.92;100.00;102159.31;5037180;28;20025;-73
2022/08/28 07:41:46;;;;;;;8.00;1.60;;;;;;;16.99;100.00;102156.72;5045258;28;20036;-73
2022/08/28 07:47:02;;;;;;;4.97;1.77;;;;;;;17.13;100.00;102155.97;5037128;28;20040;-73
2022/08/28 07:49:30;;;;;;;6.38;1.80;;;;;;;17.13;100.00;102158.63;5040094;28;20032;-73
2022/08/28 07:51:55;;;;;;;4.70;1.67;;;;;;;17.15;100.00;102149.81;5049898;28;20453;-73
2022/08/28 07:54:22;;;;;;;5.43;1.40;;;;;;;17.24;100.00;102166.72;5037179;28;20025;-73
2022/08/28 07:56:48;;;;;;;7.53;1.20;;;;;;;17.30;100.00;102162.38;5038077;28;20108;-74
2022/08/28 07:59:15;;;;;;;10.82;1.85;;;;;;;17.35;100.00;102165.09;5037316;28;20108;-72
2022/08/28 08:01:45;;;;;;;7.10;1.63;;;;;;;17.34;100.00;102158.84;5036015;28;20480;-73
2022/08/28 08:04:12;;;;;;;6.38;2.03;;;;;;;17.34;100.00;102168.63;5036354;28;20025;-74
2022/08/28 08:06:39;;;;;;;11.43;2.08;;;;;;;17.41;100.00;102170.44;5046393;28;20063;-73
2022/08/28 08:09:06;;;;;;;7.13;1.85;;;;;;;17.42;100.00;102174.91;5057045;28;20076;-73
2022/08/28 08:11:31;;;;;;;6.45;1.75;;;;;;;17.53;100.00;102175.88;5040100;28;20369;-72
2022/08/28 08:14:00;;;;;;;5.88;1.40;;;;;;;17.57;100.00;102171.50;5035021;28;20028;-73
2022/08/28 08:16:26;;;;;;;4.72;1.33;;;;;;;17.72;100.00;102173.41;5039692;28;20032;-73
2022/08/28 08:18:53;;;;;;;4.05;1.60;;;;;;;17.83;100.00;102181.47;5057608;28;20406;-74
2022/08/28 08:21:21;;;;;;;5.53;1.55;;;;;;;17.97;100.00;102184.25;5063629;28;20067;-73
2022/08/28 08:23:47;;;;;;;6.75;1.58;;;;;;;18.07;100.00;102172.81;5051381;28;20445;-74
2022/08/28 08:26:16;;;;;;;8.88;1.38;;;;;;;18.20;100.00;102173.75;5039486;28;20104;-73
2022/08/28 08:28:42;;;;;;;5.03;1.38;;;;;;;18.29;100.00;102171.16;5036493;28;20060;-73
2022/08/28 08:31:12;;;;;;;6.60;1.52;;;;;;;18.41;100.00;102182.75;5038250;28;20033;-73
2022/08/28 08:33:41;;;;;;;9.35;1.38;;;;;;;18.47;100.00;102181.00;5035042;28;20116;-72
2022/08/28 08:36:08;;;;;;;3.78;1.20;;;;;;;18.59;100.00;102176.66;5046264;28;20104;-74
2022/08/28 08:38:34;;;;;;;3.35;1.38;;;;;;;18.71;100.00;102174.91;5040128;28;20060;-72
2022/08/28 08:41:03;;;;;;;3.70;1.08;;;;;;;18.85;100.00;102174.94;5041945;28;20032;-73
2022/08/28 08:43:32;;;;;;;4.22;1.30;;;;;;;18.92;100.00;102177.69;5050071;28;20123;-74
2022/08/28 08:45:57;;;;;;;5.25;1.45;;;;;;;18.75;100.00;102177.63;5053939;28;20154;-73
2022/08/28 08:48:34;;;;;;;7.32;1.90;;;;;;;18.75;100.00;102186.50;5051159;28;20095;-74
2022/08/28 08:51:09;;;;;;;2.10;1.10;;;;;;;18.74;100.00;102187.38;5049374;28;20020;-73
2022/08/28 08:54:04;;;;;;;4.15;1.20;;;;;;;18.70;100.00;102188.25;5036709;28;20044;-72
2022/08/28 08:56:30;;;;;;;4.65;1.35;;;;;;;18.64;100.00;102180.22;5043250;28;20032;-73
2022/08/28 08:58:57;;;;;;;10.00;1.83;;;;;;;18.55;100.00;102178.41;5048473;28;20033;-74
2022/08/28 09:01:28;;;;;;;5.55;1.30;;;;;;;18.49;100.00;102181.94;5044774;28;20075;-75
2022/08/28 09:04:05;;;;;;;9.20;1.50;;;;;;;18.42;100.00;102196.13;5035317;28;20037;-76
2022/08/28 09:06:49;;;;;;;4.75;1.30;;;;;;;18.39;100.00;102179.22;5039511;28;20029;-72
2022/08/28 09:09:39;;;;;;;7.68;1.50;;;;;;;18.36;100.00;102188.06;5040847;28;20061;-73
2022/08/28 09:12:08;;;;;;;3.40;1.25;;;;;;;18.31;100.00;102187.16;5041471;28;20084;-73
2022/08/28 09:14:51;;;;;;;7.22;1.85;;;;;;;18.40;100.00;102187.22;5041217;28;20110;-74
2022/08/28 09:17:19;;;;;;;6.65;1.05;;;;;;;18.62;100.00;102188.19;5046076;28;20167;-74
2022/08/28 09:19:45;;;;;;;5.22;1.50;;;;;;;18.87;100.00;102189.19;5043546;28;20026;-74
2022/08/28 09:22:10;;;;;;;4.10;1.45;;;;;;;19.08;100.00;102181.31;5051845;28;20479;-73
2022/08/28 09:24:39;;;;;;;3.25;1.08;;;;;;;19.20;100.00;102182.19;5047892;28;20167;-74
2022/08/28 09:27:07;;;;;;;7.75;1.63;;;;;;;19.21;100.00;102176.00;5056693;28;20033;-72
2022/08/28 09:29:37;;;;;;;5.28;1.35;;;;;;;19.12;100.00;102173.28;5048254;28;20025;-73
2022/08/28 09:32:20;;;;;;;5.57;1.38;;;;;;;19.24;100.00;102175.09;5047624;28;20040;-73
2022/08/28 09:35:06;;;;;;;6.13;1.60;;;;;;;19.35;100.00;102180.47;5054980;28;20025;-75
2022/08/28 09:37:34;;;;;;;4.03;1.15;;;;;;;19.52;100.00;102178.69;5034994;28;20493;-74
2022/08/28 09:40:19;;;;;;;3.88;1.23;;;;;;;19.90;100.00;102178.72;5034863;28;20473;-73
2022/08/28 09:43:26;;;;;;;5.93;1.60;;;;;;;20.35;100.00;102176.88;5040210;28;20489;-73
2022/08/28 09:46:01;;;;;;;4.47;1.13;;;;;;;20.72;100.00;102177.63;5036574;28;20132;-74
2022/08/28 09:48:39;;;;;;;5.60;1.10;;;;;;;21.04;100.00;102167.69;5038887;28;20059;-74
2022/08/28 09:51:07;;;;;;;6.43;1.30;;;;;;;21.32;100.00;102172.84;5044232;28;20103;-74
2022/08/28 09:53:37;;;;;;;5.60;1.27;;;;;;;21.63;98.07;102172.66;5047242;28;20372;-74
2022/08/28 09:56:17;;;;;;;5.50;1.30;;;;;;;21.86;94.79;102175.13;5053941;28;20025;-71
2022/08/28 09:58:47;;;;;;;4.35;1.38;;;;;;;22.00;92.13;102175.91;5051913;28;20021;-72
2022/08/28 10:01:15;;;;;;;6.95;1.50;;;;;;;22.03;89.36;102165.13;5044956;28;20021;-73
2022/08/28 10:03:51;;;;;;;7.35;1.30;;;;;;;22.10;88.10;102168.66;5038363;28;20025;-74
2022/08/28 10:06:20;;;;;;;5.00;1.40;;;;;;;22.22;86.19;102165.84;5042533;28;20440;-74
2022/08/28 10:08:53;;;;;;;3.78;1.17;;;;;;;22.15;84.53;102165.91;5039040;28;20044;-75
2022/08/28 10:11:32;;;;;;;3.35;1.45;;;;;;;22.12;86.48;102164.13;5048748;28;20078;-76
2022/08/28 10:14:23;;;;;;;7.97;1.70;;;;;;;21.90;87.47;102166.16;5044345;28;20029;-74
2022/08/28 10:17:06;;;;;;;5.22;1.25;;;;;;;21.64;88.54;102171.75;5031177;28;20095;-75
2022/08/28 10:19:48;;;;;;;4.38;1.52;;;;;;;21.35;91.12;102170.16;5042425;28;20033;-74
2022/08/28 10:22:27;;;;;;;7.78;1.25;;;;;;;21.41;93.16;102167.44;5046232;28;20055;-76
2022/08/28 10:25:14;;;;;;;5.60;1.23;;;;;;;21.71;89.67;102165.44;5037427;28;20029;-75
2022/08/28 10:28:04;;;;;;;2.22;1.00;;;;;;;22.06;90.77;102169.59;5038019;28;20025;-75
2022/08/28 10:30:36;;;;;;;4.88;1.42;;;;;;;22.26;86.12;102172.06;5037783;28;20025;-76
2022/08/28 10:33:07;;;;;;;4.40;1.00;;;;;;;22.31;86.33;102177.34;5047920;28;20018;-76
2022/08/28 10:35:51;;;;;;;8.23;1.55;;;;;;;22.13;86.54;102171.28;5048348;28;20120;-75
2022/08/28 10:38:43;;;;;;;3.63;1.10;;;;;;;21.77;88.26;102172.53;5035092;28;20025;-77
2022/08/28 10:41:28;;;;;;;5.55;1.13;;;;;;;21.91;90.36;102184.03;5034154;28;20108;-77
2022/08/28 10:43:59;;;;;;;4.03;1.42;;;;;;;22.03;86.71;102175.88;5037869;28;20029;-77
2022/08/28 10:46:43;;;;;;;3.70;1.35;;;;;;;22.34;87.86;102182.69;5034296;28;20025;-77
2022/08/28 10:49:38;;;;;;;4.43;1.25;;;;;;;22.80;83.09;102170.53;5035069;28;20033;-76
2022/08/28 10:52:09;;;;;;;3.83;1.25;;;;;;;22.93;79.92;102172.16;5048495;28;20040;-76
2022/08/28 10:54:50;;;;;;;7.18;1.90;;;;;;;22.89;80.71;102181.16;5034902;28;20049;-77
2022/08/28 10:57:39;;;;;;;4.30;1.35;;;;;;;22.53;77.17;102180.69;5039761;28;20116;-75
2022/08/28 11:00:17;;;;;;;5.03;1.52;;;;;;;22.36;80.84;102180.91;5040345;28;20038;-76
2022/08/28 11:02:47;;;;;;;5.25;1.40;;;;;;;22.13;82.02;102190.06;5047917;28;20025;-75
2022/08/28 11:05:13;;;;;;;3.55;1.20;;;;;;;21.95;83.35;102184.84;5043417;28;20473;-77
2022/08/28 11:07:53;;;;;;;3.85;1.50;;;;;;;21.81;86.10;102183.22;5033135;28;20516;-75
2022/08/28 11:10:41;;;;;;;10.93;1.40;;;;;;;22.17;85.35;102186.44;5051564;28;20381;-76
2022/08/28 11:13:08;;;;;;;4.85;1.58;;;;;;;22.50;82.11;102184.31;5045484;28;20022;-78
2022/08/28 11:15:35;;;;;;;4.95;1.60;;;;;;;22.73;79.95;102180.47;5044967;28;20040;-77
2022/08/28 11:18:15;;;;;;;10.07;1.70;;;;;;;23.16;78.31;102181.72;5041699;28;20034;-76
2022/08/28 11:21:19;;;;;;;2.88;1.38;;;;;;;23.23;77.64;102181.56;5045093;28;20083;-71
2022/08/28 11:24:02;;;;;;;5.63;1.02;;;;;;;23.06;76.98;102178.22;5040199;28;20529;-77
2022/08/28 11:26:33;;;;;;;4.15;1.10;;;;;;;22.96;75.99;102181.94;5039446;28;20422;-76
2022/08/28 11:28:59;;;;;;;4.72;1.10;;;;;;;22.79;74.16;102191.13;5034250;28;20033;-77